Aviation Digital Data Service (ADDS)

Output produced by TAFs form (0609 UTC 25 July 2016)
found at http://www.aviationweather.gov/adds/tafs/
 
KALB 250540Z 2506/2606 00000KT P6SM SCT150 BKN250 
     FM250900 VRB03KT P6SM SCT060 BKN150 
     FM251300 18006KT P6SM BKN080 BKN150 
     FM251800 20007KT P6SM VCSH SCT060 BKN150 
     FM252100 20012G18KT P6SM SCT050 BKN250 
     PROB30 2521/2524 VRB15G30KT 3SM -TSRA BR BKN050CB 
     FM260100 22006KT P6SM SCT250